createdAt,value
2024-04-18T00:01:20.528Z,53.63
2024-04-18T00:03:47.887Z,53.41
2024-04-18T00:06:15.907Z,53.38
2024-04-18T00:08:43.223Z,53.48
2024-04-18T00:11:25.959Z,53.51
2024-04-18T00:13:53.260Z,53.54
2024-04-18T00:16:36.048Z,53.49
2024-04-18T00:19:19.444Z,53.55
2024-04-18T00:22:04.370Z,53.50
2024-04-18T00:24:32.094Z,53.34
2024-04-18T00:27:19.394Z,53.54
2024-04-18T00:29:47.958Z,53.94
2024-04-18T00:32:17.107Z,53.38
2024-04-18T00:35:04.562Z,53.41
2024-04-18T00:37:38.283Z,54.04
2024-04-18T00:40:06.130Z,53.61
2024-04-18T00:42:40.327Z,53.72
2024-04-18T00:45:08.516Z,54.03
2024-04-18T00:47:49.780Z,53.82
2024-04-18T00:50:19.422Z,53.88
2024-04-18T00:52:48.076Z,53.28
2024-04-18T00:55:31.473Z,53.86
2024-04-18T00:58:12.605Z,53.49
2024-04-18T01:00:44.750Z,53.74
2024-04-18T01:03:36.162Z,54.11
2024-04-18T01:06:10.709Z,53.57
2024-04-18T01:08:57.452Z,53.70
2024-04-18T01:11:31.138Z,54.09
2024-04-18T01:14:01.139Z,53.57
2024-04-18T01:16:48.363Z,53.41
2024-04-18T01:19:20.527Z,53.62
2024-04-18T01:21:50.873Z,53.83
2024-04-18T01:24:18.100Z,53.49
2024-04-18T01:26:45.369Z,53.45
2024-04-18T01:29:12.572Z,53.74
2024-04-18T01:31:59.835Z,53.51
2024-04-18T01:34:27.360Z,53.91
2024-04-18T01:37:14.410Z,54.05
2024-04-18T01:39:42.657Z,53.39
2024-04-18T01:42:10.005Z,53.78
2024-04-18T01:44:43.703Z,53.98
2024-04-18T01:47:29.679Z,53.77
2024-04-18T01:50:09.617Z,53.40
2024-04-18T01:52:40.801Z,53.57
2024-04-18T01:55:09.488Z,53.29
2024-04-18T01:57:39.669Z,53.38
2024-04-18T02:00:27.729Z,53.67
2024-04-18T02:02:55.083Z,53.69
2024-04-18T02:05:40.847Z,53.43
2024-04-18T02:08:14.601Z,53.65
2024-04-18T02:10:51.494Z,53.70
2024-04-18T02:13:37.487Z,54.05
2024-04-18T02:16:05.964Z,54.06
2024-04-18T02:19:07.969Z,53.77
2024-04-18T02:21:56.110Z,53.55
2024-04-18T02:24:36.184Z,53.56
2024-04-18T02:27:03.439Z,53.82
2024-04-18T02:29:30.656Z,53.72
2024-04-18T02:32:01.138Z,53.69
2024-04-18T02:34:31.160Z,53.64
2024-04-18T02:36:58.365Z,53.64
2024-04-18T02:39:25.850Z,53.88
2024-04-18T02:41:53.177Z,53.93
2024-04-18T02:44:49.209Z,53.61
2024-04-18T02:47:17.064Z,53.83
2024-04-18T02:50:04.380Z,53.95
2024-04-18T02:52:31.628Z,53.89
2024-04-18T02:54:58.856Z,54.07
2024-04-18T02:57:26.274Z,54.06
2024-04-18T02:59:53.490Z,53.64
2024-04-18T03:02:27.530Z,53.91
2024-04-18T03:05:13.212Z,54.27
2024-04-18T03:07:40.545Z,54.32
2024-04-18T03:10:08.094Z,53.76
2024-04-18T03:12:56.104Z,53.92
2024-04-18T03:15:47.170Z,53.96
2024-04-18T03:18:15.013Z,53.95
2024-04-18T03:20:42.801Z,54.03
2024-04-18T03:23:10.869Z,54.06
2024-04-18T03:25:59.839Z,53.93
2024-04-18T03:28:27.174Z,53.94
2024-04-18T03:30:54.452Z,53.85
2024-04-18T03:33:21.861Z,54.11
2024-04-18T03:35:49.205Z,54.09
2024-04-18T03:38:17.338Z,53.80
2024-04-18T03:40:56.148Z,54.25
2024-04-18T03:43:23.396Z,54.19
2024-04-18T03:46:01.297Z,54.39
2024-04-18T03:48:31.791Z,54.08
2024-04-18T03:50:59.416Z,54.20
2024-04-18T03:53:46.572Z,53.94
2024-04-18T03:56:14.053Z,54.09
2024-04-18T03:58:41.316Z,54.34
2024-04-18T04:01:08.761Z,54.50
2024-04-18T04:03:36.241Z,53.93
2024-04-18T04:06:03.574Z,54.34
2024-04-18T04:08:30.836Z,54.28
2024-04-18T04:11:13.195Z,54.29
2024-04-18T04:13:40.636Z,54.54
2024-04-18T04:16:21.281Z,54.36
2024-04-18T04:19:08.592Z,54.50
2024-04-18T04:21:51.140Z,54.27
2024-04-18T04:24:18.484Z,54.20
2024-04-18T04:26:52.288Z,54.13
2024-04-18T04:29:20.222Z,54.47
2024-04-18T04:31:47.798Z,54.46
2024-04-18T04:34:15.125Z,53.95
2024-04-18T04:36:43.258Z,54.18
2024-04-18T04:39:10.547Z,54.08
2024-04-18T04:41:41.246Z,54.41
2024-04-18T04:44:08.567Z,54.37
2024-04-18T04:46:52.434Z,54.25
2024-04-18T04:49:20.866Z,54.09
2024-04-18T04:52:00.869Z,54.11
2024-04-18T04:54:44.224Z,54.38
2024-04-18T04:57:12.322Z,54.47
2024-04-18T04:59:39.683Z,54.46
2024-04-18T05:02:07.295Z,54.25
2024-04-18T05:04:50.916Z,54.41
2024-04-18T05:07:30.224Z,54.26
2024-04-18T05:09:57.933Z,54.20
2024-04-18T05:12:25.216Z,54.44
2024-04-18T05:14:52.459Z,54.24
2024-04-18T05:17:38.620Z,54.23
2024-04-18T05:20:12.193Z,54.25
2024-04-18T05:22:39.778Z,54.38
2024-04-18T05:25:07.851Z,54.51
2024-04-18T05:27:43.949Z,54.17
2024-04-18T05:30:50.245Z,54.55
2024-04-18T05:33:17.881Z,54.83
2024-04-18T05:35:45.872Z,54.55
2024-04-18T05:38:13.050Z,54.60
2024-04-18T05:40:40.268Z,54.59
2024-04-18T05:43:07.858Z,54.77
2024-04-18T05:45:48.450Z,54.50
2024-04-18T05:48:16.032Z,54.91
2024-04-18T05:50:43.538Z,54.74
2024-04-18T05:53:23.053Z,54.63
2024-04-18T05:55:56.071Z,54.84
2024-04-18T05:58:23.399Z,54.92
2024-04-18T06:00:59.856Z,55.27
2024-04-18T06:03:27.381Z,55.57
2024-04-18T06:05:55.249Z,56.49
2024-04-18T06:08:22.452Z,56.05
2024-04-18T06:10:49.978Z,56.17
2024-04-18T06:13:23.888Z,56.16
2024-04-18T06:15:51.355Z,56.27
2024-04-18T06:18:19.198Z,56.05
2024-04-18T06:20:48.392Z,55.90
2024-04-18T06:23:15.938Z,54.88
2024-04-18T06:25:43.843Z,55.28
2024-04-18T06:28:12.621Z,54.89
2024-04-18T06:30:43.058Z,54.16
2024-04-18T06:33:13.413Z,53.87
2024-04-18T06:35:42.825Z,53.52
2024-04-18T06:38:10.221Z,53.25
2024-04-18T06:40:37.807Z,53.08
2024-04-18T06:43:05.189Z,52.36
2024-04-18T06:45:32.521Z,52.41
2024-04-18T06:47:59.857Z,51.87
2024-04-18T06:50:28.328Z,52.37
2024-04-18T06:52:56.080Z,52.03
2024-04-18T06:55:24.102Z,51.43
2024-04-18T06:57:51.582Z,51.10
2024-04-18T07:00:18.999Z,51.04
2024-04-18T07:02:46.583Z,50.42
2024-04-18T07:05:32.105Z,50.44
2024-04-18T07:08:18.400Z,50.20
2024-04-18T07:10:45.751Z,49.84
2024-04-18T07:13:29.410Z,49.14
2024-04-18T07:16:02.418Z,49.20
2024-04-18T07:18:48.447Z,49.32
2024-04-18T07:21:17.056Z,48.09
2024-04-18T07:23:44.260Z,48.19
2024-04-18T07:26:11.494Z,47.77
2024-04-18T07:28:38.730Z,47.14
2024-04-18T07:31:06.015Z,47.13
2024-04-18T07:33:34.940Z,46.94
2024-04-18T07:36:16.213Z,46.29
2024-04-18T07:38:43.466Z,46.41
2024-04-18T07:41:10.715Z,46.24
2024-04-18T07:43:37.969Z,46.95
2024-04-18T07:46:05.514Z,47.07
2024-04-18T07:48:33.131Z,46.68
2024-04-18T07:51:00.505Z,46.31
2024-04-18T07:53:28.327Z,46.89
2024-04-18T07:55:55.654Z,46.57
2024-04-18T07:58:27.821Z,46.74
2024-04-18T08:00:56.948Z,46.55
2024-04-18T08:03:27.449Z,46.95
2024-04-18T08:05:58.283Z,47.13
2024-04-18T08:08:30.862Z,47.08
2024-04-18T08:11:16.506Z,47.01
2024-04-18T08:13:50.092Z,47.12
2024-04-18T08:16:20.122Z,47.48
2024-04-18T08:18:47.396Z,47.63
2024-04-18T08:21:14.746Z,47.42
2024-04-18T08:23:42.017Z,47.75
2024-04-18T08:26:09.272Z,47.64
2024-04-18T08:28:36.543Z,47.80
2024-04-18T08:31:03.778Z,47.61
2024-04-18T08:33:31.225Z,48.17
2024-04-18T08:35:58.685Z,47.98
2024-04-18T08:38:26.217Z,48.18
2024-04-18T08:40:53.893Z,48.04
2024-04-18T08:43:21.173Z,47.96
2024-04-18T08:45:49.272Z,47.81
2024-04-18T08:48:18.369Z,48.21
2024-04-18T08:50:47.180Z,48.42
2024-04-18T08:53:14.488Z,48.16
2024-04-18T08:55:49.499Z,48.22
2024-04-18T08:58:20.446Z,48.29
2024-04-18T09:00:48.091Z,48.67
2024-04-18T09:03:16.069Z,48.86
2024-04-18T09:05:45.251Z,48.80
2024-04-18T09:08:14.355Z,48.98
2024-04-18T09:10:42.345Z,48.87
2024-04-18T09:13:11.209Z,48.66
2024-04-18T09:15:38.706Z,48.32
2024-04-18T09:18:08.027Z,48.80
2024-04-18T09:20:36.919Z,48.36
2024-04-18T09:23:05.536Z,48.74
2024-04-18T09:25:36.384Z,47.80
2024-04-18T09:28:06.140Z,48.35
2024-04-18T09:30:33.555Z,48.37
2024-04-18T09:33:06.818Z,48.05
2024-04-18T09:35:36.976Z,48.21
2024-04-18T09:38:10.298Z,47.86
2024-04-18T09:40:42.501Z,47.64
2024-04-18T09:43:27.760Z,47.62
2024-04-18T09:46:11.028Z,47.71
2024-04-18T09:48:38.763Z,47.45
2024-04-18T09:51:07.512Z,47.84
2024-04-18T09:53:35.674Z,47.39
2024-04-18T09:56:03.487Z,46.75
2024-04-18T09:58:30.781Z,46.96
2024-04-18T10:00:58.365Z,47.28
2024-04-18T10:03:26.496Z,46.44
2024-04-18T10:05:57.680Z,46.71
2024-04-18T10:08:31.071Z,46.98
2024-04-18T10:10:59.205Z,46.83
2024-04-18T10:13:26.835Z,46.34
2024-04-18T10:16:24.572Z,46.33
2024-04-18T10:18:54.286Z,46.01
2024-04-18T10:21:33.105Z,45.76
2024-04-18T10:24:11.081Z,46.26
2024-04-18T10:26:39.742Z,46.25
2024-04-18T10:29:27.796Z,46.15
2024-04-18T10:32:01.883Z,46.11
2024-04-18T10:34:31.162Z,45.81
2024-04-18T10:37:04.239Z,45.75
2024-04-18T10:39:32.350Z,45.53
2024-04-18T10:42:03.040Z,45.12
2024-04-18T10:44:31.142Z,44.87
2024-04-18T10:46:58.701Z,45.04
2024-04-18T10:49:26.537Z,44.64
2024-04-18T10:51:55.190Z,44.41
2024-04-18T10:54:22.431Z,44.06
2024-04-18T10:56:51.455Z,43.75
2024-04-18T10:59:18.658Z,43.37
2024-04-18T11:01:46.005Z,43.12
2024-04-18T11:04:13.510Z,42.79
2024-04-18T11:06:41.437Z,43.14
2024-04-18T11:09:09.255Z,42.61
2024-04-18T11:11:39.587Z,41.99
2024-04-18T11:14:09.456Z,41.55
2024-04-18T11:16:38.194Z,40.93
2024-04-18T11:19:05.832Z,40.66
2024-04-18T11:21:33.254Z,40.87
2024-04-18T11:24:00.694Z,40.46
2024-04-18T11:26:33.443Z,40.43
2024-04-18T11:29:02.608Z,40.37
2024-04-18T11:31:29.816Z,40.33
2024-04-18T11:33:57.741Z,39.92
2024-04-18T11:36:26.501Z,39.11
2024-04-18T11:38:53.761Z,38.72
2024-04-18T11:41:21.152Z,39.06
2024-04-18T11:43:48.339Z,39.11
2024-04-18T11:46:16.026Z,38.89
2024-04-18T11:48:43.468Z,38.61
2024-04-18T11:51:10.820Z,38.85
2024-04-18T11:53:38.060Z,38.77
2024-04-18T11:56:05.571Z,38.67
2024-04-18T11:58:32.818Z,38.25
2024-04-18T12:01:00.041Z,38.72
2024-04-18T12:03:41.537Z,39.15
2024-04-18T12:06:28.405Z,38.98
2024-04-18T12:08:56.647Z,38.31
2024-04-18T12:11:33.634Z,38.21
2024-04-18T12:14:16.008Z,38.59
2024-04-18T12:16:55.689Z,38.47
2024-04-18T12:19:42.708Z,38.74
2024-04-18T12:22:30.808Z,38.81
2024-04-18T12:25:19.499Z,38.40
2024-04-18T12:27:47.600Z,38.41
2024-04-18T12:30:31.316Z,38.39
2024-04-18T12:33:20.378Z,39.06
2024-04-18T12:35:48.848Z,38.60
2024-04-18T12:38:17.035Z,38.56
2024-04-18T12:40:45.186Z,38.74
2024-04-18T12:43:19.003Z,38.93
2024-04-18T12:46:06.408Z,39.20
2024-04-18T12:48:51.388Z,38.74
2024-04-18T12:51:18.966Z,39.36
2024-04-18T12:53:46.417Z,39.41
2024-04-18T12:56:14.212Z,39.33
2024-04-18T12:58:44.567Z,39.35
2024-04-18T13:01:13.134Z,39.52
2024-04-18T13:03:41.536Z,39.23
2024-04-18T13:06:28.642Z,39.05
2024-04-18T13:08:58.103Z,39.33
2024-04-18T13:11:43.336Z,39.76
2024-04-18T13:14:11.182Z,39.52
2024-04-18T13:16:38.684Z,39.46
2024-04-18T13:19:12.440Z,39.98
2024-04-18T13:21:40.268Z,39.64
2024-04-18T13:24:12.201Z,40.18
2024-04-18T13:26:52.374Z,39.66
2024-04-18T13:29:20.298Z,39.84
2024-04-18T13:31:47.930Z,39.53
2024-04-18T13:34:22.375Z,39.59
2024-04-18T13:36:50.073Z,39.33
2024-04-18T13:39:17.885Z,39.46
2024-04-18T13:42:04.560Z,39.14
2024-04-18T13:44:54.431Z,38.62
2024-04-18T13:47:44.540Z,38.65
2024-04-18T13:50:11.944Z,38.93
2024-04-18T13:52:39.640Z,38.69
2024-04-18T13:55:07.162Z,38.96
2024-04-18T13:57:34.763Z,39.25
2024-04-18T14:00:21.055Z,39.46
2024-04-18T14:02:52.109Z,39.65
2024-04-18T14:05:20.692Z,39.78
2024-04-18T14:08:03.868Z,39.54
2024-04-18T14:10:31.804Z,40.12
2024-04-18T14:13:17.858Z,39.75
2024-04-18T14:16:08.230Z,39.70
2024-04-18T14:18:54.722Z,40.01
2024-04-18T14:21:35.306Z,39.91
2024-04-18T14:24:02.896Z,40.03
2024-04-18T14:26:30.132Z,39.76
2024-04-18T14:29:17.771Z,40.71
2024-04-18T14:32:01.936Z,40.37
2024-04-18T14:34:48.970Z,40.06
2024-04-18T14:37:19.338Z,40.03
2024-04-18T14:39:47.671Z,40.75
2024-04-18T14:42:14.975Z,40.29
2024-04-18T14:44:42.943Z,40.50
2024-04-18T14:47:17.526Z,40.54
2024-04-18T14:50:01.920Z,41.21
2024-04-18T14:52:34.919Z,41.11
2024-04-18T14:55:25.984Z,41.30
2024-04-18T14:58:02.148Z,40.95
2024-04-18T15:00:52.476Z,40.56
2024-04-18T15:03:20.558Z,40.91
2024-04-18T15:05:55.175Z,40.47
2024-04-18T15:08:39.330Z,41.29
2024-04-18T15:11:25.321Z,40.54
2024-04-18T15:14:07.526Z,40.82
2024-04-18T15:16:35.361Z,40.65
2024-04-18T15:19:02.795Z,40.28
2024-04-18T15:21:50.486Z,40.75
2024-04-18T15:24:18.203Z,40.37
2024-04-18T15:27:01.949Z,40.91
2024-04-18T15:29:29.150Z,40.25
2024-04-18T15:32:16.055Z,40.94
2024-04-18T15:34:45.973Z,40.69
2024-04-18T15:37:32.098Z,40.61
2024-04-18T15:39:59.482Z,40.95
2024-04-18T15:42:26.873Z,40.99
2024-04-18T15:44:54.359Z,40.88
2024-04-18T15:47:31.578Z,40.98
2024-04-18T15:50:18.864Z,41.26
2024-04-18T15:52:46.499Z,41.03
2024-04-18T15:55:30.948Z,41.29
2024-04-18T15:58:18.452Z,40.66
2024-04-18T16:00:45.871Z,41.15
2024-04-18T16:03:34.450Z,40.76
2024-04-18T16:06:24.782Z,40.56
2024-04-18T16:09:11.895Z,40.67
2024-04-18T16:11:40.420Z,40.88
2024-04-18T16:14:28.047Z,41.11
2024-04-18T16:16:55.387Z,40.39
2024-04-18T16:19:38.158Z,40.66
2024-04-18T16:22:06.046Z,40.84
2024-04-18T16:24:49.005Z,40.04
2024-04-18T16:27:17.494Z,40.29
2024-04-18T16:30:02.547Z,39.96
2024-04-18T16:32:42.144Z,40.36
2024-04-18T16:35:09.525Z,40.13
2024-04-18T16:37:40.695Z,40.12
2024-04-18T16:40:17.775Z,40.30
2024-04-18T16:43:03.287Z,40.63
2024-04-18T16:45:50.716Z,39.91
2024-04-18T16:48:18.096Z,40.15
2024-04-18T16:50:45.525Z,40.21
2024-04-18T16:53:12.764Z,40.32
2024-04-18T16:55:43.273Z,40.76
2024-04-18T16:58:17.902Z,40.78
2024-04-18T17:00:55.023Z,40.56
2024-04-18T17:03:22.476Z,40.49
2024-04-18T17:06:02.485Z,41.19
2024-04-18T17:08:29.770Z,40.54
2024-04-18T17:10:57.151Z,41.24
2024-04-18T17:13:42.830Z,40.91
2024-04-18T17:16:10.825Z,40.98
2024-04-18T17:18:46.207Z,41.04
2024-04-18T17:21:13.765Z,40.75
2024-04-18T17:23:41.083Z,40.87
2024-04-18T17:26:08.364Z,40.94
2024-04-18T17:28:35.635Z,41.51
2024-04-18T17:31:03.222Z,41.59
2024-04-18T17:33:30.593Z,41.18
2024-04-18T17:36:01.148Z,41.68
2024-04-18T17:38:48.353Z,41.19
2024-04-18T17:41:32.237Z,41.75
2024-04-18T17:44:18.211Z,41.98
2024-04-18T17:46:57.946Z,41.75
2024-04-18T17:49:25.986Z,41.72
2024-04-18T17:51:54.417Z,41.75
2024-04-18T17:54:22.711Z,41.49
2024-04-18T17:56:50.383Z,42.05
2024-04-18T17:59:17.979Z,42.22
2024-04-18T18:01:45.759Z,42.04
2024-04-18T18:04:16.287Z,42.28
2024-04-18T18:06:43.557Z,42.07
2024-04-18T18:09:10.871Z,42.17
2024-04-18T18:11:38.226Z,42.29
2024-04-18T18:14:05.624Z,42.15
2024-04-18T18:16:51.451Z,42.11
2024-04-18T18:19:18.815Z,42.23
2024-04-18T18:21:58.819Z,42.09
2024-04-18T18:24:26.440Z,42.12
2024-04-18T18:26:54.548Z,42.92
2024-04-18T18:29:22.131Z,42.49
2024-04-18T18:32:13.996Z,42.48
2024-04-18T18:34:48.906Z,42.68
2024-04-18T18:37:17.218Z,42.25
2024-04-18T18:40:05.965Z,42.72
2024-04-18T18:42:33.364Z,42.52
2024-04-18T18:45:00.642Z,42.81
2024-04-18T18:47:28.078Z,42.60
2024-04-18T18:49:55.597Z,42.47
2024-04-18T18:52:24.021Z,43.03
2024-04-18T18:54:51.495Z,42.61
2024-04-18T18:57:18.870Z,42.69
2024-04-18T18:59:49.336Z,43.39
2024-04-18T19:02:17.113Z,42.75
2024-04-18T19:05:02.472Z,42.96
2024-04-18T19:07:29.796Z,42.88
2024-04-18T19:09:57.174Z,42.97
2024-04-18T19:12:25.575Z,43.07
2024-04-18T19:14:53.443Z,43.41
2024-04-18T19:17:20.744Z,43.49
2024-04-18T19:19:47.971Z,43.36
2024-04-18T19:22:15.864Z,43.14
2024-04-18T19:24:43.393Z,43.40
2024-04-18T19:27:10.788Z,43.19
2024-04-18T19:29:46.092Z,43.21
2024-04-18T19:32:17.165Z,43.17
2024-04-18T19:34:44.490Z,43.62
2024-04-18T19:37:11.767Z,43.49
2024-04-18T19:39:39.034Z,43.68
2024-04-18T19:42:06.545Z,43.91
2024-04-18T19:44:34.390Z,44.12
2024-04-18T19:47:01.669Z,43.91
2024-04-18T19:49:29.808Z,43.78
2024-04-18T19:51:58.703Z,44.09
2024-04-18T19:54:27.331Z,43.67
2024-04-18T19:56:54.853Z,44.23
2024-04-18T19:59:22.519Z,44.57
2024-04-18T20:01:50.007Z,44.37
2024-04-18T20:04:17.925Z,44.09
2024-04-18T20:06:45.234Z,44.49
2024-04-18T20:09:12.482Z,44.54
2024-04-18T20:11:39.787Z,44.50
2024-04-18T20:14:07.044Z,44.51
2024-04-18T20:16:35.207Z,44.39
2024-04-18T20:19:16.475Z,44.26
2024-04-18T20:21:44.977Z,44.35
2024-04-18T20:24:13.570Z,44.40
2024-04-18T20:27:13.056Z,44.53
2024-04-18T20:29:46.419Z,44.52
2024-04-18T20:32:26.450Z,44.91
2024-04-18T20:34:54.793Z,44.81
2024-04-18T20:37:23.265Z,44.41
2024-04-18T20:39:51.520Z,44.46
2024-04-18T20:42:20.374Z,44.70
2024-04-18T20:45:00.412Z,44.95
2024-04-18T20:47:28.029Z,45.23
2024-04-18T20:49:55.426Z,44.65
2024-04-18T20:52:23.404Z,44.88
2024-04-18T20:54:51.351Z,44.56
2024-04-18T20:57:18.867Z,44.74
2024-04-18T20:59:46.173Z,45.10
2024-04-18T21:02:13.564Z,45.08
2024-04-18T21:04:41.869Z,45.39
2024-04-18T21:07:09.057Z,44.94
2024-04-18T21:09:36.749Z,45.23
2024-04-18T21:12:04.141Z,45.18
2024-04-18T21:14:31.376Z,45.14
2024-04-18T21:17:01.177Z,45.43
2024-04-18T21:19:28.416Z,45.07
2024-04-18T21:21:55.655Z,44.83
2024-04-18T21:24:23.423Z,45.27
2024-04-18T21:26:50.715Z,44.90
2024-04-18T21:29:18.243Z,45.26
2024-04-18T21:31:45.509Z,45.30
2024-04-18T21:34:12.998Z,45.40
2024-04-18T21:36:40.426Z,45.19
2024-04-18T21:39:08.043Z,45.20
2024-04-18T21:41:39.189Z,45.42
2024-04-18T21:44:06.587Z,45.16
2024-04-18T21:46:33.964Z,45.38
2024-04-18T21:49:01.307Z,45.13
2024-04-18T21:51:28.791Z,45.71
2024-04-18T21:53:56.148Z,45.53
2024-04-18T21:56:23.694Z,45.73
2024-04-18T21:58:53.924Z,45.55
2024-04-18T22:01:40.199Z,45.25
2024-04-18T22:04:07.495Z,45.90
2024-04-18T22:06:34.863Z,45.57
2024-04-18T22:09:02.181Z,45.88
2024-04-18T22:11:29.455Z,46.09
2024-04-18T22:13:57.278Z,45.56
2024-04-18T22:16:24.630Z,45.74
2024-04-18T22:18:52.203Z,46.05
2024-04-18T22:21:37.064Z,45.74
2024-04-18T22:24:08.020Z,45.53
2024-04-18T22:26:36.054Z,46.05
2024-04-18T22:29:03.358Z,45.73
2024-04-18T22:31:30.575Z,45.93
2024-04-18T22:33:58.441Z,46.38
2024-04-18T22:36:29.061Z,46.17
2024-04-18T22:38:57.829Z,46.12
2024-04-18T22:41:27.551Z,46.26
2024-04-18T22:43:54.935Z,46.29
2024-04-18T22:46:22.251Z,46.12
2024-04-18T22:48:49.637Z,46.51
2024-04-18T22:51:17.404Z,46.44
2024-04-18T22:53:44.677Z,46.58
2024-04-18T22:56:11.869Z,46.83
2024-04-18T22:58:39.072Z,47.01
2024-04-18T23:01:06.661Z,47.15
2024-04-18T23:03:34.169Z,46.77
2024-04-18T23:06:14.286Z,46.99
2024-04-18T23:08:41.971Z,46.79
2024-04-18T23:11:09.231Z,47.19
2024-04-18T23:13:36.576Z,47.43
2024-04-18T23:16:03.958Z,47.10
2024-04-18T23:18:31.313Z,47.23
2024-04-18T23:20:58.632Z,47.38
2024-04-18T23:23:34.942Z,48.12
2024-04-18T23:26:02.378Z,47.71
2024-04-18T23:28:29.608Z,47.79
2024-04-18T23:30:57.365Z,47.87
2024-04-18T23:33:24.723Z,48.29
2024-04-18T23:35:52.035Z,47.84
2024-04-18T23:38:19.398Z,48.04
2024-04-18T23:40:46.761Z,48.36
2024-04-18T23:43:13.984Z,48.11
2024-04-18T23:45:41.233Z,48.80
2024-04-18T23:48:10.219Z,48.61
2024-04-18T23:50:37.614Z,48.36
2024-04-18T23:53:05.166Z,48.72
2024-04-18T23:55:32.489Z,48.78
2024-04-18T23:58:00.235Z,49.05
